Observations for BRISTOL LULSGATE, United Kingdom (EGGD)

EGGD 190320Z AUTO 19009KT 9999 BKN007 BKN010 15/15 Q1010
EGGD 190250Z AUTO 19005KT 160V230 9999 BKN008 15/15 Q1010   
EGGD 190220Z AUTO 22007KT 9999 BKN010 15/15 Q1010   
EGGD 190150Z AUTO 23004KT 190V260 9999 SCT011 SCT024 BKN037 15/15 Q1011 
EGGD 190120Z AUTO 22007KT 9999 SCT023 SCT028 BKN045 15/15 Q1011 
EGGD 190050Z AUTO 21009KT 9999 BKN043 15/15 Q1011   
EGGD 190020Z AUTO 21009KT 9999 SCT005 OVC043 15/15 Q1011
EGGD 182350Z AUTO 21007KT 9999 BKN044/// //////CB 15/15 Q1010   
EGGD 182320Z AUTO 22013KT 4500 RADZ SCT003/// BKN009/// //////CB 15/15 Q1011 RERA   
EGGD 182250Z AUTO 20011KT 3700 RADZ SCT009 BKN013 OVC024 16/16 Q1010
EGGD 182220Z AUTO 20010KT 9999 BKN012 OVC026 16/16 Q1010
EGGD 182150Z AUTO 21009KT 9999 FEW016 SCT022 BKN027 17/15 Q1011 
EGGD 182120Z AUTO 21010KT 9999 BKN043 17/15 Q1011   
EGGD 182050Z AUTO 21011KT 180V250 9999 SCT016 BKN042 17/15 Q1011
EGGD 182020Z AUTO 20011KT 9999 BKN014 OVC041 17/15 Q1011
EGGD 181950Z AUTO 20011KT 9999 OVC045 17/15 Q1010   
EGGD 181920Z AUTO 21012KT 170V240 9999 OVC044 17/15 Q1010   
EGGD 181850Z AUTO 20012KT 9999 OVC042 17/15 Q1010   
EGGD 181820Z AUTO 19012KT 9999 BKN041 OVC048 18/15 Q1010
EGGD 181750Z AUTO 20012KT 9999 BKN044 18/15 Q1010   
EGGD 181720Z AUTO 20011KT 9999 BKN046 18/15 Q1010   
EGGD 181650Z AUTO 19012KT 9999 FEW024 SCT032 BKN047 19/16 Q1010 
EGGD 181620Z AUTO 20012KT 9999 SCT023 BKN027 19/16 Q1010
EGGD 181550Z AUTO 22007KT 9999 BKN022 OVC030 18/17 Q1010
EGGD 181520Z AUTO 22007KT 190V250 9999 SCT023 BKN030 OVC038 17/17 Q1010 
EGGD 181450Z AUTO 24008KT 9999 FEW005 SCT013 BKN018 17/17 Q1010 RERA
EGGD 181420Z AUTO 24006KT 200V280 3600 RA FEW007 BKN011 OVC016 17/17 Q1010  
EGGD 181350Z AUTO 22010KT 9999 BKN015 BKN020 OVC031 18/16 Q1010 
EGGD 181320Z AUTO 21009KT 9999 BKN019 BKN023 OVC030 18/16 Q1010 
EGGD 181250Z 22014G24KT 9999 8000S VCSH SCT022 BKN030 19/15 Q1009   
EGGD 181220Z AUTO 23012KT 9999 BKN022 OVC026 18/15 Q1009
EGGD 181150Z 23014KT 9999 SCT023 BKN048 19/15 Q1009 
EGGD 181120Z AUTO 23014KT 9999 BKN018 BKN022 OVC032 18/15 Q1009 
EGGD 181050Z AUTO 24016KT 9999 BKN017 OVC022 17/14 Q1009
EGGD 181020Z AUTO 23012KT 9999 BKN017 OVC023 17/14 Q1008
EGGD 180950Z AUTO 24012KT 9999 BKN017 OVC023 16/14 Q1008
EGGD 180920Z AUTO 24014KT 9999 BKN017 OVC029 16/13 Q1008
EGGD 180850Z AUTO 23013KT 9999 BKN016 OVC027 16/14 Q1007
EGGD 180820Z AUTO 24015KT 9999 BKN013 OVC021 16/14 Q1007
EGGD 180750Z AUTO 24014KT 9999 OVC013 15/14 Q1006   
EGGD 180720Z AUTO 24017KT 9999 BKN012 OVC017 15/14 Q1005
EGGD 180650Z AUTO 23021G31KT 9999 BKN010 OVC018 16/14 Q1005 
EGGD 180620Z AUTO 22014KT 9999 OVC006 16/16 Q1004   
EGGD 180550Z AUTO 22014KT 9999 OVC007 16/16 Q1003   
EGGD 180520Z AUTO 22016G26KT 9999 OVC009 17/16 Q1002
EGGD 180450Z AUTO 21016KT 9999 OVC010 17/16 Q1002   
EGGD 180420Z AUTO 20015G27KT 9999 OVC009 17/16 Q1002
EGGD 180350Z AUTO 19017G28KT 9999 BKN009 OVC012 17/16 Q1001 
EGGD 180320Z AUTO 19015KT 9999 OVC007 17/16 Q1002   
EGGD 180250Z AUTO 18016KT 9999 BKN004 OVC007 17/17 Q1002